Terminal Aerodrome Forecast
Issued by NWS

Current Version | Previous Version | Text Only | Print | Product List | Glossary Off
Versions: 1 2 3 4 5 6 7 8 9 10 11 12 13 14 15 16 17 18 19 20 21 22

000
FTUS41 KRNK 220532
TAFLWB
TAF
KLWB 220532Z 2206/2306 00000KT 5SM BR SCT060
     FM220700 00000KT 1SM BR BKN008
     FM221000 00000KT 1/4SM FG BKN002
     FM221300 00000KT P6SM FEW060=

USA.gov is the U.S. government's official web portal to all federal, state and local government web resources and services.